Aviation Digital Data Service (ADDS)

Output produced by METARs form (1111 UTC 24 January 2017)
found at http://www.aviationweather.gov/adds/metars/
 
KLNS 241053Z 34010KT 10SM BKN025 OVC032 03/02 A2945 RMK AO2 SLP974 T00330022
KLNS 240941Z 2410/2506 35010G20KT P6SM VCSH SCT009 BKN025 
     FM241300 34012G22KT P6SM BKN035 
     FM241600 32015G25KT P6SM BKN035 
     FM242100 32014G24KT P6SM BKN035